sensor_id;sensor_type;location;lat;lon;timestamp;temperature;humidity
66610;DHT22;53468;48.276;14.416;2023-07-13T00:02:31;19.40;99.90
66610;DHT22;53468;48.276;14.416;2023-07-13T00:08:25;19.40;99.90
66610;DHT22;53468;48.276;14.416;2023-07-13T00:13:55;19.40;99.90
66610;DHT22;53468;48.276;14.416;2023-07-13T00:19:35;19.30;99.90
66610;DHT22;53468;48.276;14.416;2023-07-13T00:25:28;19.30;99.90
66610;DHT22;53468;48.276;14.416;2023-07-13T00:31:11;19.30;99.90
66610;DHT22;53468;48.276;14.416;2023-07-13T00:37:05;19.20;99.90
66610;DHT22;53468;48.276;14.416;2023-07-13T00:43:12;19.10;99.90
66610;DHT22;53468;48.276;14.416;2023-07-13T00:48:36;19.20;99.90
66610;DHT22;53468;48.276;14.416;2023-07-13T01:05:36;19.10;99.90
66610;DHT22;53468;48.276;14.416;2023-07-13T01:11:21;19.20;99.90
66610;DHT22;53468;48.276;14.416;2023-07-13T01:17:08;19.20;99.90
66610;DHT22;53468;48.276;14.416;2023-07-13T01:40:29;18.90;99.90
66610;DHT22;53468;48.276;14.416;2023-07-13T01:46:08;19.10;99.90
66610;DHT22;53468;48.276;14.416;2023-07-13T01:51:32;19.10;99.90
66610;DHT22;53468;48.276;14.416;2023-07-13T01:57:23;19.20;99.90
66610;DHT22;53468;48.276;14.416;2023-07-13T02:02:52;19.30;99.90
66610;DHT22;53468;48.276;14.416;2023-07-13T02:08:40;19.30;99.90
66610;DHT22;53468;48.276;14.416;2023-07-13T02:26:12;19.20;99.90
66610;DHT22;53468;48.276;14.416;2023-07-13T02:31:57;19.20;99.90
66610;DHT22;53468;48.276;14.416;2023-07-13T02:37:17;19.20;99.90
66610;DHT22;53468;48.276;14.416;2023-07-13T02:43:34;19.30;99.90
66610;DHT22;53468;48.276;14.416;2023-07-13T02:49:23;19.30;99.90
66610;DHT22;53468;48.276;14.416;2023-07-13T02:55:18;19.30;99.90
66610;DHT22;53468;48.276;14.416;2023-07-13T03:01:05;19.20;99.90
66610;DHT22;53468;48.276;14.416;2023-07-13T03:06:49;19.20;99.90
66610;DHT22;53468;48.276;14.416;2023-07-13T03:12:49;19.20;99.90
66610;DHT22;53468;48.276;14.416;2023-07-13T03:19:04;19.10;99.90
66610;DHT22;53468;48.276;14.416;2023-07-13T03:25:00;19.10;99.90
66610;DHT22;53468;48.276;14.416;2023-07-13T03:31:02;19.10;99.90
66610;DHT22;53468;48.276;14.416;2023-07-13T04:12:50;19.20;99.90
66610;DHT22;53468;48.276;14.416;2023-07-13T04:18:35;19.20;99.90
66610;DHT22;53468;48.276;14.416;2023-07-13T04:24:29;19.30;99.90
66610;DHT22;53468;48.276;14.416;2023-07-13T05:42:56;19.90;99.90
66610;DHT22;53468;48.276;14.416;2023-07-13T05:48:50;19.90;99.90
66610;DHT22;53468;48.276;14.416;2023-07-13T05:54:55;20.10;99.90
66610;DHT22;53468;48.276;14.416;2023-07-13T06:06:35;20.20;99.90
66610;DHT22;53468;48.276;14.416;2023-07-13T06:12:33;20.30;99.90
66610;DHT22;53468;48.276;14.416;2023-07-13T06:17:55;20.40;99.90
66610;DHT22;53468;48.276;14.416;2023-07-13T06:23:18;20.50;99.90
66610;DHT22;53468;48.276;14.416;2023-07-13T06:34:35;20.50;99.90
66610;DHT22;53468;48.276;14.416;2023-07-13T07:39:22;21.40;99.90
66610;DHT22;53468;48.276;14.416;2023-07-13T07:44:52;21.60;99.90
66610;DHT22;53468;48.276;14.416;2023-07-13T07:50:22;22.00;99.90
66610;DHT22;53468;48.276;14.416;2023-07-13T07:55:47;21.90;99.90
66610;DHT22;53468;48.276;14.416;2023-07-13T08:01:09;22.60;99.90
66610;DHT22;53468;48.276;14.416;2023-07-13T08:06:14;22.60;99.90
66610;DHT22;53468;48.276;14.416;2023-07-13T08:11:17;22.60;99.90
66610;DHT22;53468;48.276;14.416;2023-07-13T08:16:19;22.70;99.90
66610;DHT22;53468;48.276;14.416;2023-07-13T08:21:22;22.60;99.90
66610;DHT22;53468;48.276;14.416;2023-07-13T08:26:26;22.70;99.90
66610;DHT22;53468;48.276;14.416;2023-07-13T08:31:30;22.60;99.90
66610;DHT22;53468;48.276;14.416;2023-07-13T08:36:34;22.60;99.90
66610;DHT22;53468;48.276;14.416;2023-07-13T08:41:42;22.60;99.90
66610;DHT22;53468;48.276;14.416;2023-07-13T08:46:48;22.40;99.90
66610;DHT22;53468;48.276;14.416;2023-07-13T08:52:08;22.30;99.90
66610;DHT22;53468;48.276;14.416;2023-07-13T08:57:18;22.40;99.90
66610;DHT22;53468;48.276;14.416;2023-07-13T09:02:26;22.30;99.90
66610;DHT22;53468;48.276;14.416;2023-07-13T09:07:37;22.10;99.90
66610;DHT22;53468;48.276;14.416;2023-07-13T09:12:56;22.20;99.90
66610;DHT22;53468;48.276;14.416;2023-07-13T09:18:03;22.30;99.90
66610;DHT22;53468;48.276;14.416;2023-07-13T09:23:12;22.20;99.90
66610;DHT22;53468;48.276;14.416;2023-07-13T09:28:19;22.40;99.90
66610;DHT22;53468;48.276;14.416;2023-07-13T09:33:23;22.60;99.90
66610;DHT22;53468;48.276;14.416;2023-07-13T09:38:27;22.50;99.90
66610;DHT22;53468;48.276;14.416;2023-07-13T09:43:31;22.60;99.90
66610;DHT22;53468;48.276;14.416;2023-07-13T09:48:36;22.60;99.90
66610;DHT22;53468;48.276;14.416;2023-07-13T09:53:42;22.70;99.90
66610;DHT22;53468;48.276;14.416;2023-07-13T09:58:48;22.60;99.90
66610;DHT22;53468;48.276;14.416;2023-07-13T10:03:54;22.70;99.90
66610;DHT22;53468;48.276;14.416;2023-07-13T10:09:02;22.50;99.90
66610;DHT22;53468;48.276;14.416;2023-07-13T10:14:21;22.70;99.90
66610;DHT22;53468;48.276;14.416;2023-07-13T10:19:29;22.80;99.90
66610;DHT22;53468;48.276;14.416;2023-07-13T10:24:37;22.80;99.90
66610;DHT22;53468;48.276;14.416;2023-07-13T10:29:45;22.80;99.90
66610;DHT22;53468;48.276;14.416;2023-07-13T10:34:51;22.90;99.90
66610;DHT22;53468;48.276;14.416;2023-07-13T10:39:57;23.00;99.90
66610;DHT22;53468;48.276;14.416;2023-07-13T10:45:02;23.30;99.90
66610;DHT22;53468;48.276;14.416;2023-07-13T10:50:09;23.20;99.90
66610;DHT22;53468;48.276;14.416;2023-07-13T10:55:39;23.20;99.90
66610;DHT22;53468;48.276;14.416;2023-07-13T11:00:49;23.10;99.90
66610;DHT22;53468;48.276;14.416;2023-07-13T11:06:07;23.10;99.90
66610;DHT22;53468;48.276;14.416;2023-07-13T11:11:35;23.10;99.90
66610;DHT22;53468;48.276;14.416;2023-07-13T11:16:47;23.10;99.90
66610;DHT22;53468;48.276;14.416;2023-07-13T11:22:10;23.10;99.90
66610;DHT22;53468;48.276;14.416;2023-07-13T11:27:22;22.80;99.90
66610;DHT22;53468;48.276;14.416;2023-07-13T11:32:30;22.80;99.90
66610;DHT22;53468;48.276;14.416;2023-07-13T11:37:33;22.90;99.90
66610;DHT22;53468;48.276;14.416;2023-07-13T11:42:35;23.00;99.90
66610;DHT22;53468;48.276;14.416;2023-07-13T11:47:42;23.00;99.90
66610;DHT22;53468;48.276;14.416;2023-07-13T11:52:44;23.00;99.90
66610;DHT22;53468;48.276;14.416;2023-07-13T11:57:50;23.10;99.90
66610;DHT22;53468;48.276;14.416;2023-07-13T12:02:57;23.10;99.90
66610;DHT22;53468;48.276;14.416;2023-07-13T12:08:09;23.10;99.90
66610;DHT22;53468;48.276;14.416;2023-07-13T12:13:13;23.40;99.90
66610;DHT22;53468;48.276;14.416;2023-07-13T12:18:20;23.70;99.90
66610;DHT22;53468;48.276;14.416;2023-07-13T12:29:17;23.40;99.90
66610;DHT22;53468;48.276;14.416;2023-07-13T12:34:24;23.80;99.90
66610;DHT22;53468;48.276;14.416;2023-07-13T12:39:32;24.30;99.90
66610;DHT22;53468;48.276;14.416;2023-07-13T12:44:41;24.30;99.90
66610;DHT22;53468;48.276;14.416;2023-07-13T12:49:49;24.30;99.90
66610;DHT22;53468;48.276;14.416;2023-07-13T12:54:56;24.10;99.90
66610;DHT22;53468;48.276;14.416;2023-07-13T12:59:59;24.50;99.90
66610;DHT22;53468;48.276;14.416;2023-07-13T13:05:14;24.60;99.90
66610;DHT22;53468;48.276;14.416;2023-07-13T13:10:20;24.50;99.90
66610;DHT22;53468;48.276;14.416;2023-07-13T13:15:25;24.50;99.90
66610;DHT22;53468;48.276;14.416;2023-07-13T13:20:33;24.80;99.90
66610;DHT22;53468;48.276;14.416;2023-07-13T13:25:37;24.90;99.90
66610;DHT22;53468;48.276;14.416;2023-07-13T13:30:41;24.80;99.90
66610;DHT22;53468;48.276;14.416;2023-07-13T13:35:49;24.70;99.90
66610;DHT22;53468;48.276;14.416;2023-07-13T13:40:52;24.80;99.90
66610;DHT22;53468;48.276;14.416;2023-07-13T13:45:58;24.60;99.90
66610;DHT22;53468;48.276;14.416;2023-07-13T13:51:13;24.70;99.90
66610;DHT22;53468;48.276;14.416;2023-07-13T13:56:20;24.60;99.90
66610;DHT22;53468;48.276;14.416;2023-07-13T14:01:23;24.70;99.90
66610;DHT22;53468;48.276;14.416;2023-07-13T14:06:29;24.80;99.90
66610;DHT22;53468;48.276;14.416;2023-07-13T14:11:31;24.80;99.90
66610;DHT22;53468;48.276;14.416;2023-07-13T14:16:35;24.90;99.90
66610;DHT22;53468;48.276;14.416;2023-07-13T14:21:39;25.10;99.90
66610;DHT22;53468;48.276;14.416;2023-07-13T14:26:42;25.10;99.90
66610;DHT22;53468;48.276;14.416;2023-07-13T14:31:47;25.60;99.90
66610;DHT22;53468;48.276;14.416;2023-07-13T14:36:52;25.60;99.90
66610;DHT22;53468;48.276;14.416;2023-07-13T14:41:57;25.60;99.60
66610;DHT22;53468;48.276;14.416;2023-07-13T14:47:23;25.50;95.60
66610;DHT22;53468;48.276;14.416;2023-07-13T14:52:28;25.80;97.40
66610;DHT22;53468;48.276;14.416;2023-07-13T14:57:31;25.90;97.00
66610;DHT22;53468;48.276;14.416;2023-07-13T15:02:36;25.70;97.90
66610;DHT22;53468;48.276;14.416;2023-07-13T15:07:41;25.60;96.20
66610;DHT22;53468;48.276;14.416;2023-07-13T15:12:45;25.70;96.80
66610;DHT22;53468;48.276;14.416;2023-07-13T15:17:48;25.60;94.90
66610;DHT22;53468;48.276;14.416;2023-07-13T15:23:00;25.70;97.50
66610;DHT22;53468;48.276;14.416;2023-07-13T15:28:05;25.50;96.10
66610;DHT22;53468;48.276;14.416;2023-07-13T15:33:12;25.40;95.90
66610;DHT22;53468;48.276;14.416;2023-07-13T15:38:24;25.40;95.00
66610;DHT22;53468;48.276;14.416;2023-07-13T15:43:35;25.50;94.30
66610;DHT22;53468;48.276;14.416;2023-07-13T15:48:39;25.60;94.40
66610;DHT22;53468;48.276;14.416;2023-07-13T15:53:44;25.50;94.40
66610;DHT22;53468;48.276;14.416;2023-07-13T15:58:51;25.40;94.80
66610;DHT22;53468;48.276;14.416;2023-07-13T16:03:56;25.40;95.40
66610;DHT22;53468;48.276;14.416;2023-07-13T16:09:03;25.50;93.70
66610;DHT22;53468;48.276;14.416;2023-07-13T16:14:08;25.50;93.30
66610;DHT22;53468;48.276;14.416;2023-07-13T16:19:14;25.60;93.50
66610;DHT22;53468;48.276;14.416;2023-07-13T16:24:22;25.50;93.50
66610;DHT22;53468;48.276;14.416;2023-07-13T16:29:27;25.50;92.80
66610;DHT22;53468;48.276;14.416;2023-07-13T16:34:31;25.50;93.20
66610;DHT22;53468;48.276;14.416;2023-07-13T16:39:36;25.50;92.00
66610;DHT22;53468;48.276;14.416;2023-07-13T16:44:40;25.60;92.70
66610;DHT22;53468;48.276;14.416;2023-07-13T16:49:44;25.50;92.10
66610;DHT22;53468;48.276;14.416;2023-07-13T16:54:49;25.70;90.60
66610;DHT22;53468;48.276;14.416;2023-07-13T16:59:57;25.60;91.20
66610;DHT22;53468;48.276;14.416;2023-07-13T17:05:03;25.50;90.50
66610;DHT22;53468;48.276;14.416;2023-07-13T17:10:21;25.40;90.30
66610;DHT22;53468;48.276;14.416;2023-07-13T17:15:28;25.20;90.70
66610;DHT22;53468;48.276;14.416;2023-07-13T17:20:37;25.20;90.70
66610;DHT22;53468;48.276;14.416;2023-07-13T17:25:48;25.20;90.90
66610;DHT22;53468;48.276;14.416;2023-07-13T17:30:54;25.10;90.00
66610;DHT22;53468;48.276;14.416;2023-07-13T17:35:59;25.00;90.30
66610;DHT22;53468;48.276;14.416;2023-07-13T17:41:04;24.90;91.30
66610;DHT22;53468;48.276;14.416;2023-07-13T17:46:12;24.80;91.20
66610;DHT22;53468;48.276;14.416;2023-07-13T17:51:18;24.50;91.60
66610;DHT22;53468;48.276;14.416;2023-07-13T17:56:25;24.30;89.70
66610;DHT22;53468;48.276;14.416;2023-07-13T18:01:31;24.30;90.10
66610;DHT22;53468;48.276;14.416;2023-07-13T18:06:35;24.40;91.80
66610;DHT22;53468;48.276;14.416;2023-07-13T18:11:43;24.40;92.00
66610;DHT22;53468;48.276;14.416;2023-07-13T18:16:52;24.30;92.70
66610;DHT22;53468;48.276;14.416;2023-07-13T18:21:56;24.30;92.20
66610;DHT22;53468;48.276;14.416;2023-07-13T18:27:04;24.10;92.10
66610;DHT22;53468;48.276;14.416;2023-07-13T18:32:15;23.90;92.90
66610;DHT22;53468;48.276;14.416;2023-07-13T18:37:31;23.60;93.20
66610;DHT22;53468;48.276;14.416;2023-07-13T18:42:40;23.40;93.40
66610;DHT22;53468;48.276;14.416;2023-07-13T18:47:49;23.20;94.00
66610;DHT22;53468;48.276;14.416;2023-07-13T18:53:01;23.00;94.80
66610;DHT22;53468;48.276;14.416;2023-07-13T18:58:14;22.90;94.50
66610;DHT22;53468;48.276;14.416;2023-07-13T19:03:35;22.70;96.10
66610;DHT22;53468;48.276;14.416;2023-07-13T19:08:59;22.50;98.20
66610;DHT22;53468;48.276;14.416;2023-07-13T19:14:49;22.30;99.90
66610;DHT22;53468;48.276;14.416;2023-07-13T19:20:33;22.10;99.90
66610;DHT22;53468;48.276;14.416;2023-07-13T19:26:11;21.90;99.90
66610;DHT22;53468;48.276;14.416;2023-07-13T20:36:27;20.80;99.90
66610;DHT22;53468;48.276;14.416;2023-07-13T20:48:51;20.30;99.90
66610;DHT22;53468;48.276;14.416;2023-07-13T21:18:55;20.10;99.90
66610;DHT22;53468;48.276;14.416;2023-07-13T21:49:18;19.50;99.90
66610;DHT22;53468;48.276;14.416;2023-07-13T22:01:23;19.10;99.90
66610;DHT22;53468;48.276;14.416;2023-07-13T22:56:23;18.00;99.90
66610;DHT22;53468;48.276;14.416;2023-07-13T23:14:23;17.70;99.90
66610;DHT22;53468;48.276;14.416;2023-07-13T23:20:31;17.60;99.90
66610;DHT22;53468;48.276;14.416;2023-07-13T23:26:34;17.40;99.90
66610;DHT22;53468;48.276;14.416;2023-07-13T23:44:48;16.90;99.90
66610;DHT22;53468;48.276;14.416;2023-07-13T23:50:51;16.90;99.90
66610;DHT22;53468;48.276;14.416;2023-07-13T23:56:35;16.70;99.90
